<?xml version="1.0" encoding="UTF-8" standalone="no" ?>
<gpx xmlns="http://www.topografix.com/GPX/1/1" xmlns:xsi="http://www.w3.org/2001/XMLSchema-instance" xsi:schemaLocation="http://www.topografix.com/GPX/1/1 http://www.topografix.com/GPX/1/1/gpx.xsd" version="1.1" creator="VisuGPX - https://www.visugpx.com">
  <metadata>
    <name>Footing Rhône</name>
    <desc><![CDATA[Ceci est un premier footing après des années !]]></desc>
  </metadata>
  <trk>
    <name><![CDATA[Sequence 1]]></name>
    <trkseg>
      <trkpt lat="45.75401" lon="4.82921">
        <ele>164</ele>
        <time>2016-09-11T05:33:15Z</time>
      </trkpt>
      <trkpt lat="45.7539" lon="4.82934">
        <ele>170</ele>
        <time>2016-09-11T05:33:21Z</time>
      </trkpt>
      <trkpt lat="45.75383" lon="4.82946">
        <ele>177</ele>
        <time>2016-09-11T05:33:26Z</time>
      </trkpt>
      <trkpt lat="45.75384" lon="4.8296">
        <ele>180</ele>
        <time>2016-09-11T05:33:31Z</time>
      </trkpt>
      <trkpt lat="45.75392" lon="4.82967">
        <ele>173</ele>
        <time>2016-09-11T05:33:35Z</time>
      </trkpt>
      <trkpt lat="45.75404" lon="4.82974">
        <ele>170</ele>
        <time>2016-09-11T05:33:41Z</time>
      </trkpt>
      <trkpt lat="45.75418" lon="4.82987">
        <ele>169</ele>
        <time>2016-09-11T05:33:47Z</time>
      </trkpt>
      <trkpt lat="45.75431" lon="4.82999">
        <ele>171</ele>
        <time>2016-09-11T05:33:56Z</time>
      </trkpt>
      <trkpt lat="45.7544" lon="4.83011">
        <ele>172</ele>
        <time>2016-09-11T05:34:01Z</time>
      </trkpt>
      <trkpt lat="45.75457" lon="4.83019">
        <ele>180</ele>
        <time>2016-09-11T05:34:10Z</time>
      </trkpt>
      <trkpt lat="45.7546" lon="4.83027">
        <ele>181</ele>
        <time>2016-09-11T05:34:13Z</time>
      </trkpt>
      <trkpt lat="45.75457" lon="4.83041">
        <ele>180</ele>
        <time>2016-09-11T05:34:17Z</time>
      </trkpt>
      <trkpt lat="45.75456" lon="4.83074">
        <ele>174</ele>
        <time>2016-09-11T05:34:27Z</time>
      </trkpt>
      <trkpt lat="45.75456" lon="4.83081">
        <ele>177</ele>
        <time>2016-09-11T05:34:30Z</time>
      </trkpt>
      <trkpt lat="45.75448" lon="4.83089">
        <ele>177</ele>
        <time>2016-09-11T05:34:35Z</time>
      </trkpt>
      <trkpt lat="45.75438" lon="4.83099">
        <ele>178</ele>
        <time>2016-09-11T05:34:41Z</time>
      </trkpt>
      <trkpt lat="45.75427" lon="4.83118">
        <ele>175</ele>
        <time>2016-09-11T05:34:47Z</time>
      </trkpt>
      <trkpt lat="45.75421" lon="4.83137">
        <ele>172</ele>
        <time>2016-09-11T05:34:53Z</time>
      </trkpt>
      <trkpt lat="45.75416" lon="4.83154">
        <ele>172</ele>
        <time>2016-09-11T05:34:59Z</time>
      </trkpt>
      <trkpt lat="45.75411" lon="4.83173">
        <ele>169</ele>
        <time>2016-09-11T05:35:05Z</time>
      </trkpt>
      <trkpt lat="45.75403" lon="4.8319">
        <ele>169</ele>
        <time>2016-09-11T05:35:11Z</time>
      </trkpt>
      <trkpt lat="45.75389" lon="4.8321">
        <ele>167</ele>
        <time>2016-09-11T05:35:19Z</time>
      </trkpt>
      <trkpt lat="45.75384" lon="4.83222">
        <ele>171</ele>
        <time>2016-09-11T05:35:23Z</time>
      </trkpt>
      <trkpt lat="45.75374" lon="4.83238">
        <ele>172</ele>
        <time>2016-09-11T05:35:30Z</time>
      </trkpt>
      <trkpt lat="45.75371" lon="4.8326">
        <ele>170</ele>
        <time>2016-09-11T05:35:40Z</time>
      </trkpt>
      <trkpt lat="45.75368" lon="4.83266">
        <ele>169</ele>
        <time>2016-09-11T05:35:43Z</time>
      </trkpt>
      <trkpt lat="45.75365" lon="4.83278">
        <ele>167</ele>
        <time>2016-09-11T05:35:47Z</time>
      </trkpt>
      <trkpt lat="45.75357" lon="4.83294">
        <ele>162</ele>
        <time>2016-09-11T05:35:53Z</time>
      </trkpt>
      <trkpt lat="45.75342" lon="4.83325">
        <ele>166</ele>
        <time>2016-09-11T05:36:04Z</time>
      </trkpt>
      <trkpt lat="45.75339" lon="4.83336">
        <ele>169</ele>
        <time>2016-09-11T05:36:07Z</time>
      </trkpt>
      <trkpt lat="45.75334" lon="4.83348">
        <ele>168</ele>
        <time>2016-09-11T05:36:13Z</time>
      </trkpt>
      <trkpt lat="45.75319" lon="4.83374">
        <ele>174</ele>
        <time>2016-09-11T05:36:21Z</time>
      </trkpt>
      <trkpt lat="45.75317" lon="4.83381">
        <ele>177</ele>
        <time>2016-09-11T05:36:23Z</time>
      </trkpt>
      <trkpt lat="45.75317" lon="4.83383">
        <ele>172</ele>
        <time>2016-09-11T05:36:29Z</time>
      </trkpt>
      <trkpt lat="45.75318" lon="4.83385">
        <ele>171</ele>
        <time>2016-09-11T05:36:35Z</time>
      </trkpt>
      <trkpt lat="45.75305" lon="4.83407">
        <ele>175</ele>
        <time>2016-09-11T05:36:43Z</time>
      </trkpt>
      <trkpt lat="45.75297" lon="4.83415">
        <ele>173</ele>
        <time>2016-09-11T05:36:47Z</time>
      </trkpt>
      <trkpt lat="45.75288" lon="4.83432">
        <ele>175</ele>
        <time>2016-09-11T05:36:53Z</time>
      </trkpt>
      <trkpt lat="45.75281" lon="4.83451">
        <ele>175</ele>
        <time>2016-09-11T05:36:59Z</time>
      </trkpt>
      <trkpt lat="45.75276" lon="4.83469">
        <ele>175</ele>
        <time>2016-09-11T05:37:05Z</time>
      </trkpt>
      <trkpt lat="45.7527" lon="4.83487">
        <ele>175</ele>
        <time>2016-09-11T05:37:11Z</time>
      </trkpt>
      <trkpt lat="45.75265" lon="4.83504">
        <ele>174</ele>
        <time>2016-09-11T05:37:17Z</time>
      </trkpt>
      <trkpt lat="45.75253" lon="4.83526">
        <ele>172</ele>
        <time>2016-09-11T05:37:25Z</time>
      </trkpt>
      <trkpt lat="45.75247" lon="4.83541">
        <ele>172</ele>
        <time>2016-09-11T05:37:29Z</time>
      </trkpt>
      <trkpt lat="45.75237" lon="4.83565">
        <ele>171</ele>
        <time>2016-09-11T05:37:37Z</time>
      </trkpt>
      <trkpt lat="45.75229" lon="4.83581">
        <ele>172</ele>
        <time>2016-09-11T05:37:43Z</time>
      </trkpt>
      <trkpt lat="45.75226" lon="4.83587">
        <ele>174</ele>
        <time>2016-09-11T05:37:46Z</time>
      </trkpt>
      <trkpt lat="45.75217" lon="4.8361">
        <ele>174</ele>
        <time>2016-09-11T05:37:54Z</time>
      </trkpt>
      <trkpt lat="45.75213" lon="4.83622">
        <ele>173</ele>
        <time>2016-09-11T05:37:58Z</time>
      </trkpt>
      <trkpt lat="45.75208" lon="4.83641">
        <ele>174</ele>
        <time>2016-09-11T05:38:04Z</time>
      </trkpt>
      <trkpt lat="45.75194" lon="4.83672">
        <ele>177</ele>
        <time>2016-09-11T05:38:14Z</time>
      </trkpt>
      <trkpt lat="45.75193" lon="4.83679">
        <ele>176</ele>
        <time>2016-09-11T05:38:16Z</time>
      </trkpt>
      <trkpt lat="45.75173" lon="4.83676">
        <ele>174</ele>
        <time>2016-09-11T05:38:25Z</time>
      </trkpt>
      <trkpt lat="45.75164" lon="4.83667">
        <ele>176</ele>
        <time>2016-09-11T05:38:31Z</time>
      </trkpt>
      <trkpt lat="45.7515" lon="4.83655">
        <ele>183</ele>
        <time>2016-09-11T05:38:38Z</time>
      </trkpt>
      <trkpt lat="45.75147" lon="4.83652">
        <ele>183</ele>
        <time>2016-09-11T05:38:40Z</time>
      </trkpt>
      <trkpt lat="45.75131" lon="4.83632">
        <ele>173</ele>
        <time>2016-09-11T05:38:49Z</time>
      </trkpt>
      <trkpt lat="45.75125" lon="4.83624">
        <ele>175</ele>
        <time>2016-09-11T05:38:52Z</time>
      </trkpt>
      <trkpt lat="45.75107" lon="4.83609">
        <ele>170</ele>
        <time>2016-09-11T05:38:59Z</time>
      </trkpt>
      <trkpt lat="45.75089" lon="4.836">
        <ele>171</ele>
        <time>2016-09-11T05:39:08Z</time>
      </trkpt>
      <trkpt lat="45.75085" lon="4.83596">
        <ele>170</ele>
        <time>2016-09-11T05:39:10Z</time>
      </trkpt>
      <trkpt lat="45.75073" lon="4.83588">
        <ele>169</ele>
        <time>2016-09-11T05:39:17Z</time>
      </trkpt>
      <trkpt lat="45.75067" lon="4.83576">
        <ele>166</ele>
        <time>2016-09-11T05:39:22Z</time>
      </trkpt>
      <trkpt lat="45.75058" lon="4.83561">
        <ele>168</ele>
        <time>2016-09-11T05:39:28Z</time>
      </trkpt>
      <trkpt lat="45.7504" lon="4.83535">
        <ele>166</ele>
        <time>2016-09-11T05:39:37Z</time>
      </trkpt>
      <trkpt lat="45.75034" lon="4.83526">
        <ele>166</ele>
        <time>2016-09-11T05:39:40Z</time>
      </trkpt>
      <trkpt lat="45.7502" lon="4.8351">
        <ele>172</ele>
        <time>2016-09-11T05:39:48Z</time>
      </trkpt>
      <trkpt lat="45.75009" lon="4.83505">
        <ele>170</ele>
        <time>2016-09-11T05:39:52Z</time>
      </trkpt>
      <trkpt lat="45.74997" lon="4.83493">
        <ele>172</ele>
        <time>2016-09-11T05:39:58Z</time>
      </trkpt>
      <trkpt lat="45.74984" lon="4.83473">
        <ele>180</ele>
        <time>2016-09-11T05:40:07Z</time>
      </trkpt>
      <trkpt lat="45.74978" lon="4.83468">
        <ele>179</ele>
        <time>2016-09-11T05:40:10Z</time>
      </trkpt>
      <trkpt lat="45.74957" lon="4.83457">
        <ele>178</ele>
        <time>2016-09-11T05:40:21Z</time>
      </trkpt>
      <trkpt lat="45.74954" lon="4.83454">
        <ele>178</ele>
        <time>2016-09-11T05:40:23Z</time>
      </trkpt>
      <trkpt lat="45.74925" lon="4.83442">
        <ele>170</ele>
        <time>2016-09-11T05:40:33Z</time>
      </trkpt>
      <trkpt lat="45.74921" lon="4.83437">
        <ele>171</ele>
        <time>2016-09-11T05:40:35Z</time>
      </trkpt>
      <trkpt lat="45.74904" lon="4.83419">
        <ele>173</ele>
        <time>2016-09-11T05:40:44Z</time>
      </trkpt>
      <trkpt lat="45.74898" lon="4.83413">
        <ele>173</ele>
        <time>2016-09-11T05:40:47Z</time>
      </trkpt>
      <trkpt lat="45.74886" lon="4.83404">
        <ele>170</ele>
        <time>2016-09-11T05:40:53Z</time>
      </trkpt>
      <trkpt lat="45.74872" lon="4.83392">
        <ele>162</ele>
        <time>2016-09-11T05:41:00Z</time>
      </trkpt>
      <trkpt lat="45.74861" lon="4.83381">
        <ele>159</ele>
        <time>2016-09-11T05:41:05Z</time>
      </trkpt>
      <trkpt lat="45.74852" lon="4.83369">
        <ele>156</ele>
        <time>2016-09-11T05:41:12Z</time>
      </trkpt>
      <trkpt lat="45.74836" lon="4.83352">
        <ele>162</ele>
        <time>2016-09-11T05:41:21Z</time>
      </trkpt>
      <trkpt lat="45.74831" lon="4.83348">
        <ele>161</ele>
        <time>2016-09-11T05:41:23Z</time>
      </trkpt>
      <trkpt lat="45.74818" lon="4.83334">
        <ele>161</ele>
        <time>2016-09-11T05:41:30Z</time>
      </trkpt>
      <trkpt lat="45.74809" lon="4.83326">
        <ele>164</ele>
        <time>2016-09-11T05:41:35Z</time>
      </trkpt>
      <trkpt lat="45.74804" lon="4.83317">
        <ele>165</ele>
        <time>2016-09-11T05:41:41Z</time>
      </trkpt>
      <trkpt lat="45.74774" lon="4.83311">
        <ele>167</ele>
        <time>2016-09-11T05:41:52Z</time>
      </trkpt>
      <trkpt lat="45.74766" lon="4.83302">
        <ele>162</ele>
        <time>2016-09-11T05:41:55Z</time>
      </trkpt>
      <trkpt lat="45.74758" lon="4.83292">
        <ele>165</ele>
        <time>2016-09-11T05:41:59Z</time>
      </trkpt>
      <trkpt lat="45.74746" lon="4.83282">
        <ele>162</ele>
        <time>2016-09-11T05:42:05Z</time>
      </trkpt>
      <trkpt lat="45.74735" lon="4.83273">
        <ele>167</ele>
        <time>2016-09-11T05:42:11Z</time>
      </trkpt>
      <trkpt lat="45.74722" lon="4.83263">
        <ele>164</ele>
        <time>2016-09-11T05:42:17Z</time>
      </trkpt>
      <trkpt lat="45.74705" lon="4.83251">
        <ele>163</ele>
        <time>2016-09-11T05:42:25Z</time>
      </trkpt>
      <trkpt lat="45.74698" lon="4.83247">
        <ele>160</ele>
        <time>2016-09-11T05:42:29Z</time>
      </trkpt>
      <trkpt lat="45.74684" lon="4.83236">
        <ele>163</ele>
        <time>2016-09-11T05:42:35Z</time>
      </trkpt>
      <trkpt lat="45.74667" lon="4.8322">
        <ele>168</ele>
        <time>2016-09-11T05:42:43Z</time>
      </trkpt>
      <trkpt lat="45.74657" lon="4.83211">
        <ele>167</ele>
        <time>2016-09-11T05:42:47Z</time>
      </trkpt>
      <trkpt lat="45.74631" lon="4.83193">
        <ele>168</ele>
        <time>2016-09-11T05:42:58Z</time>
      </trkpt>
      <trkpt lat="45.74629" lon="4.83191">
        <ele>167</ele>
        <time>2016-09-11T05:42:59Z</time>
      </trkpt>
      <trkpt lat="45.74616" lon="4.83182">
        <ele>170</ele>
        <time>2016-09-11T05:43:05Z</time>
      </trkpt>
      <trkpt lat="45.74598" lon="4.83175">
        <ele>167</ele>
        <time>2016-09-11T05:43:15Z</time>
      </trkpt>
      <trkpt lat="45.74591" lon="4.83169">
        <ele>169</ele>
        <time>2016-09-11T05:43:20Z</time>
      </trkpt>
      <trkpt lat="45.74586" lon="4.83164">
        <ele>171</ele>
        <time>2016-09-11T05:43:23Z</time>
      </trkpt>
      <trkpt lat="45.74575" lon="4.8315">
        <ele>174</ele>
        <time>2016-09-11T05:43:29Z</time>
      </trkpt>
      <trkpt lat="45.74561" lon="4.83132">
        <ele>170</ele>
        <time>2016-09-11T05:43:36Z</time>
      </trkpt>
      <trkpt lat="45.74548" lon="4.8312">
        <ele>165</ele>
        <time>2016-09-11T05:43:42Z</time>
      </trkpt>
      <trkpt lat="45.74535" lon="4.83111">
        <ele>159</ele>
        <time>2016-09-11T05:43:48Z</time>
      </trkpt>
      <trkpt lat="45.74521" lon="4.83091">
        <ele>164</ele>
        <time>2016-09-11T05:43:55Z</time>
      </trkpt>
      <trkpt lat="45.74516" lon="4.83075">
        <ele>166</ele>
        <time>2016-09-11T05:44:01Z</time>
      </trkpt>
      <trkpt lat="45.74508" lon="4.83067">
        <ele>168</ele>
        <time>2016-09-11T05:44:05Z</time>
      </trkpt>
      <trkpt lat="45.74494" lon="4.83056">
        <ele>168</ele>
        <time>2016-09-11T05:44:11Z</time>
      </trkpt>
      <trkpt lat="45.74485" lon="4.83044">
        <ele>170</ele>
        <time>2016-09-11T05:44:17Z</time>
      </trkpt>
      <trkpt lat="45.74462" lon="4.83018">
        <ele>171</ele>
        <time>2016-09-11T05:44:28Z</time>
      </trkpt>
      <trkpt lat="45.74455" lon="4.83004">
        <ele>167</ele>
        <time>2016-09-11T05:44:33Z</time>
      </trkpt>
      <trkpt lat="45.74442" lon="4.82992">
        <ele>166</ele>
        <time>2016-09-11T05:44:39Z</time>
      </trkpt>
      <trkpt lat="45.74438" lon="4.82988">
        <ele>168</ele>
        <time>2016-09-11T05:44:41Z</time>
      </trkpt>
      <trkpt lat="45.74422" lon="4.82979">
        <ele>166</ele>
        <time>2016-09-11T05:44:47Z</time>
      </trkpt>
      <trkpt lat="45.74406" lon="4.8297">
        <ele>166</ele>
        <time>2016-09-11T05:44:53Z</time>
      </trkpt>
      <trkpt lat="45.74392" lon="4.82959">
        <ele>165</ele>
        <time>2016-09-11T05:44:59Z</time>
      </trkpt>
      <trkpt lat="45.7438" lon="4.82947">
        <ele>168</ele>
        <time>2016-09-11T05:45:05Z</time>
      </trkpt>
      <trkpt lat="45.74368" lon="4.82937">
        <ele>169</ele>
        <time>2016-09-11T05:45:11Z</time>
      </trkpt>
      <trkpt lat="45.74343" lon="4.82919">
        <ele>167</ele>
        <time>2016-09-11T05:45:22Z</time>
      </trkpt>
      <trkpt lat="45.74333" lon="4.82909">
        <ele>165</ele>
        <time>2016-09-11T05:45:28Z</time>
      </trkpt>
      <trkpt lat="45.74331" lon="4.82908">
        <ele>164</ele>
        <time>2016-09-11T05:45:29Z</time>
      </trkpt>
      <trkpt lat="45.74314" lon="4.82893">
        <ele>165</ele>
        <time>2016-09-11T05:45:37Z</time>
      </trkpt>
      <trkpt lat="45.74305" lon="4.82884">
        <ele>166</ele>
        <time>2016-09-11T05:45:41Z</time>
      </trkpt>
      <trkpt lat="45.74293" lon="4.82875">
        <ele>166</ele>
        <time>2016-09-11T05:45:47Z</time>
      </trkpt>
      <trkpt lat="45.74272" lon="4.82854">
        <ele>168</ele>
        <time>2016-09-11T05:45:58Z</time>
      </trkpt>
      <trkpt lat="45.74265" lon="4.82847">
        <ele>167</ele>
        <time>2016-09-11T05:46:02Z</time>
      </trkpt>
      <trkpt lat="45.74258" lon="4.82841">
        <ele>164</ele>
        <time>2016-09-11T05:46:05Z</time>
      </trkpt>
      <trkpt lat="45.74244" lon="4.82835">
        <ele>166</ele>
        <time>2016-09-11T05:46:11Z</time>
      </trkpt>
      <trkpt lat="45.74232" lon="4.82823">
        <ele>166</ele>
        <time>2016-09-11T05:46:17Z</time>
      </trkpt>
      <trkpt lat="45.74213" lon="4.82805">
        <ele>172</ele>
        <time>2016-09-11T05:46:26Z</time>
      </trkpt>
      <trkpt lat="45.74208" lon="4.82799">
        <ele>171</ele>
        <time>2016-09-11T05:46:29Z</time>
      </trkpt>
      <trkpt lat="45.74197" lon="4.8279">
        <ele>167</ele>
        <time>2016-09-11T05:46:35Z</time>
      </trkpt>
      <trkpt lat="45.74179" lon="4.82774">
        <ele>162</ele>
        <time>2016-09-11T05:46:43Z</time>
      </trkpt>
      <trkpt lat="45.7417" lon="4.82764">
        <ele>165</ele>
        <time>2016-09-11T05:46:47Z</time>
      </trkpt>
      <trkpt lat="45.74155" lon="4.82751">
        <ele>169</ele>
        <time>2016-09-11T05:46:54Z</time>
      </trkpt>
      <trkpt lat="45.74146" lon="4.8274">
        <ele>171</ele>
        <time>2016-09-11T05:46:59Z</time>
      </trkpt>
      <trkpt lat="45.74133" lon="4.82732">
        <ele>173</ele>
        <time>2016-09-11T05:47:05Z</time>
      </trkpt>
      <trkpt lat="45.74122" lon="4.82722">
        <ele>170</ele>
        <time>2016-09-11T05:47:11Z</time>
      </trkpt>
      <trkpt lat="45.7411" lon="4.82711">
        <ele>165</ele>
        <time>2016-09-11T05:47:17Z</time>
      </trkpt>
      <trkpt lat="45.74099" lon="4.82701">
        <ele>165</ele>
        <time>2016-09-11T05:47:23Z</time>
      </trkpt>
      <trkpt lat="45.74082" lon="4.82694">
        <ele>166</ele>
        <time>2016-09-11T05:47:30Z</time>
      </trkpt>
      <trkpt lat="45.74072" lon="4.82685">
        <ele>161</ele>
        <time>2016-09-11T05:47:35Z</time>
      </trkpt>
      <trkpt lat="45.74059" lon="4.82668">
        <ele>162</ele>
        <time>2016-09-11T05:47:42Z</time>
      </trkpt>
      <trkpt lat="45.74049" lon="4.82661">
        <ele>163</ele>
        <time>2016-09-11T05:47:47Z</time>
      </trkpt>
      <trkpt lat="45.74039" lon="4.82653">
        <ele>166</ele>
        <time>2016-09-11T05:47:53Z</time>
      </trkpt>
      <trkpt lat="45.74024" lon="4.82642">
        <ele>166</ele>
        <time>2016-09-11T05:48:00Z</time>
      </trkpt>
      <trkpt lat="45.74008" lon="4.82626">
        <ele>164</ele>
        <time>2016-09-11T05:48:07Z</time>
      </trkpt>
      <trkpt lat="45.73993" lon="4.82614">
        <ele>165</ele>
        <time>2016-09-11T05:48:14Z</time>
      </trkpt>
      <trkpt lat="45.73984" lon="4.82607">
        <ele>167</ele>
        <time>2016-09-11T05:48:18Z</time>
      </trkpt>
      <trkpt lat="45.73974" lon="4.82605">
        <ele>163</ele>
        <time>2016-09-11T05:48:23Z</time>
      </trkpt>
      <trkpt lat="45.7396" lon="4.82592">
        <ele>162</ele>
        <time>2016-09-11T05:48:29Z</time>
      </trkpt>
      <trkpt lat="45.7394" lon="4.82568">
        <ele>170</ele>
        <time>2016-09-11T05:48:37Z</time>
      </trkpt>
      <trkpt lat="45.73932" lon="4.82564">
        <ele>172</ele>
        <time>2016-09-11T05:48:41Z</time>
      </trkpt>
      <trkpt lat="45.73914" lon="4.8255">
        <ele>173</ele>
        <time>2016-09-11T05:48:51Z</time>
      </trkpt>
      <trkpt lat="45.7391" lon="4.82545">
        <ele>170</ele>
        <time>2016-09-11T05:48:53Z</time>
      </trkpt>
      <trkpt lat="45.73896" lon="4.82531">
        <ele>171</ele>
        <time>2016-09-11T05:49:00Z</time>
      </trkpt>
      <trkpt lat="45.73876" lon="4.82514">
        <ele>170</ele>
        <time>2016-09-11T05:49:07Z</time>
      </trkpt>
      <trkpt lat="45.73868" lon="4.82509">
        <ele>171</ele>
        <time>2016-09-11T05:49:11Z</time>
      </trkpt>
      <trkpt lat="45.73856" lon="4.82502">
        <ele>169</ele>
        <time>2016-09-11T05:49:17Z</time>
      </trkpt>
      <trkpt lat="45.73842" lon="4.82487">
        <ele>171</ele>
        <time>2016-09-11T05:49:25Z</time>
      </trkpt>
      <trkpt lat="45.73825" lon="4.82486">
        <ele>171</ele>
        <time>2016-09-11T05:49:33Z</time>
      </trkpt>
      <trkpt lat="45.73821" lon="4.82485">
        <ele>170</ele>
        <time>2016-09-11T05:49:35Z</time>
      </trkpt>
      <trkpt lat="45.73808" lon="4.82481">
        <ele>177</ele>
        <time>2016-09-11T05:49:41Z</time>
      </trkpt>
      <trkpt lat="45.73792" lon="4.82466">
        <ele>176</ele>
        <time>2016-09-11T05:49:47Z</time>
      </trkpt>
      <trkpt lat="45.73774" lon="4.82449">
        <ele>174</ele>
        <time>2016-09-11T05:49:55Z</time>
      </trkpt>
      <trkpt lat="45.73762" lon="4.82435">
        <ele>176</ele>
        <time>2016-09-11T05:50:02Z</time>
      </trkpt>
      <trkpt lat="45.73749" lon="4.82429">
        <ele>176</ele>
        <time>2016-09-11T05:50:07Z</time>
      </trkpt>
      <trkpt lat="45.73735" lon="4.82424">
        <ele>177</ele>
        <time>2016-09-11T05:50:11Z</time>
      </trkpt>
      <trkpt lat="45.73727" lon="4.82411">
        <ele>176</ele>
        <time>2016-09-11T05:50:17Z</time>
      </trkpt>
      <trkpt lat="45.73715" lon="4.82391">
        <ele>172</ele>
        <time>2016-09-11T05:50:27Z</time>
      </trkpt>
      <trkpt lat="45.73704" lon="4.82375">
        <ele>173</ele>
        <time>2016-09-11T05:50:34Z</time>
      </trkpt>
      <trkpt lat="45.73702" lon="4.82373">
        <ele>172</ele>
        <time>2016-09-11T05:50:35Z</time>
      </trkpt>
      <trkpt lat="45.73689" lon="4.82367">
        <ele>171</ele>
        <time>2016-09-11T05:50:42Z</time>
      </trkpt>
      <trkpt lat="45.73667" lon="4.82357">
        <ele>171</ele>
        <time>2016-09-11T05:50:50Z</time>
      </trkpt>
      <trkpt lat="45.73665" lon="4.82351">
        <ele>170</ele>
        <time>2016-09-11T05:50:53Z</time>
      </trkpt>
      <trkpt lat="45.73659" lon="4.82346">
        <ele>172</ele>
        <time>2016-09-11T05:50:59Z</time>
      </trkpt>
      <trkpt lat="45.7363" lon="4.82328">
        <ele>165</ele>
        <time>2016-09-11T05:51:09Z</time>
      </trkpt>
      <trkpt lat="45.73625" lon="4.82326">
        <ele>166</ele>
        <time>2016-09-11T05:51:11Z</time>
      </trkpt>
      <trkpt lat="45.73608" lon="4.82314">
        <ele>167</ele>
        <time>2016-09-11T05:51:17Z</time>
      </trkpt>
      <trkpt lat="45.73591" lon="4.82305">
        <ele>168</ele>
        <time>2016-09-11T05:51:23Z</time>
      </trkpt>
      <trkpt lat="45.73581" lon="4.82291">
        <ele>165</ele>
        <time>2016-09-11T05:51:29Z</time>
      </trkpt>
      <trkpt lat="45.73568" lon="4.82284">
        <ele>165</ele>
        <time>2016-09-11T05:51:36Z</time>
      </trkpt>
      <trkpt lat="45.73545" lon="4.82265">
        <ele>164</ele>
        <time>2016-09-11T05:51:46Z</time>
      </trkpt>
      <trkpt lat="45.73543" lon="4.82264">
        <ele>164</ele>
        <time>2016-09-11T05:51:47Z</time>
      </trkpt>
      <trkpt lat="45.73528" lon="4.82257">
        <ele>169</ele>
        <time>2016-09-11T05:51:53Z</time>
      </trkpt>
      <trkpt lat="45.73507" lon="4.82247">
        <ele>177</ele>
        <time>2016-09-11T05:52:02Z</time>
      </trkpt>
      <trkpt lat="45.735" lon="4.82242">
        <ele>176</ele>
        <time>2016-09-11T05:52:05Z</time>
      </trkpt>
      <trkpt lat="45.73482" lon="4.82224">
        <ele>174</ele>
        <time>2016-09-11T05:52:14Z</time>
      </trkpt>
      <trkpt lat="45.7348" lon="4.82219">
        <ele>177</ele>
        <time>2016-09-11T05:52:17Z</time>
      </trkpt>
      <trkpt lat="45.73463" lon="4.82202">
        <ele>168</ele>
        <time>2016-09-11T05:52:26Z</time>
      </trkpt>
      <trkpt lat="45.73457" lon="4.82201">
        <ele>170</ele>
        <time>2016-09-11T05:52:29Z</time>
      </trkpt>
      <trkpt lat="45.73448" lon="4.82198">
        <ele>172</ele>
        <time>2016-09-11T05:52:35Z</time>
      </trkpt>
      <trkpt lat="45.73434" lon="4.82196">
        <ele>173</ele>
        <time>2016-09-11T05:52:41Z</time>
      </trkpt>
      <trkpt lat="45.73435" lon="4.82201">
        <ele>174</ele>
        <time>2016-09-11T05:52:51Z</time>
      </trkpt>
      <trkpt lat="45.73449" lon="4.82201">
        <ele>173</ele>
        <time>2016-09-11T05:52:58Z</time>
      </trkpt>
      <trkpt lat="45.73462" lon="4.822">
        <ele>171</ele>
        <time>2016-09-11T05:53:04Z</time>
      </trkpt>
      <trkpt lat="45.73469" lon="4.822">
        <ele>169</ele>
        <time>2016-09-11T05:53:06Z</time>
      </trkpt>
      <trkpt lat="45.7348" lon="4.82209">
        <ele>166</ele>
        <time>2016-09-11T05:53:11Z</time>
      </trkpt>
      <trkpt lat="45.73491" lon="4.8222">
        <ele>167</ele>
        <time>2016-09-11T05:53:17Z</time>
      </trkpt>
      <trkpt lat="45.73501" lon="4.8223">
        <ele>164</ele>
        <time>2016-09-11T05:53:23Z</time>
      </trkpt>
      <trkpt lat="45.73512" lon="4.82241">
        <ele>165</ele>
        <time>2016-09-11T05:53:29Z</time>
      </trkpt>
      <trkpt lat="45.7353" lon="4.8225">
        <ele>167</ele>
        <time>2016-09-11T05:53:37Z</time>
      </trkpt>
      <trkpt lat="45.7354" lon="4.82263">
        <ele>161</ele>
        <time>2016-09-11T05:53:44Z</time>
      </trkpt>
      <trkpt lat="45.73552" lon="4.82272">
        <ele>163</ele>
        <time>2016-09-11T05:53:50Z</time>
      </trkpt>
      <trkpt lat="45.73559" lon="4.82276">
        <ele>165</ele>
        <time>2016-09-11T05:53:53Z</time>
      </trkpt>
      <trkpt lat="45.73571" lon="4.82286">
        <ele>162</ele>
        <time>2016-09-11T05:53:59Z</time>
      </trkpt>
      <trkpt lat="45.73586" lon="4.82293">
        <ele>160</ele>
        <time>2016-09-11T05:54:05Z</time>
      </trkpt>
      <trkpt lat="45.73598" lon="4.82304">
        <ele>159</ele>
        <time>2016-09-11T05:54:11Z</time>
      </trkpt>
      <trkpt lat="45.73616" lon="4.82323">
        <ele>160</ele>
        <time>2016-09-11T05:54:21Z</time>
      </trkpt>
      <trkpt lat="45.73625" lon="4.82328">
        <ele>159</ele>
        <time>2016-09-11T05:54:25Z</time>
      </trkpt>
      <trkpt lat="45.73637" lon="4.82333">
        <ele>162</ele>
        <time>2016-09-11T05:54:29Z</time>
      </trkpt>
      <trkpt lat="45.73649" lon="4.82343">
        <ele>161</ele>
        <time>2016-09-11T05:54:36Z</time>
      </trkpt>
      <trkpt lat="45.73663" lon="4.82344">
        <ele>164</ele>
        <time>2016-09-11T05:54:42Z</time>
      </trkpt>
      <trkpt lat="45.73677" lon="4.82353">
        <ele>164</ele>
        <time>2016-09-11T05:54:48Z</time>
      </trkpt>
      <trkpt lat="45.73689" lon="4.82362">
        <ele>167</ele>
        <time>2016-09-11T05:54:53Z</time>
      </trkpt>
      <trkpt lat="45.73708" lon="4.82374">
        <ele>164</ele>
        <time>2016-09-11T05:55:01Z</time>
      </trkpt>
      <trkpt lat="45.73712" lon="4.82379">
        <ele>163</ele>
        <time>2016-09-11T05:55:05Z</time>
      </trkpt>
      <trkpt lat="45.7372" lon="4.82389">
        <ele>164</ele>
        <time>2016-09-11T05:55:11Z</time>
      </trkpt>
      <trkpt lat="45.73733" lon="4.82399">
        <ele>167</ele>
        <time>2016-09-11T05:55:17Z</time>
      </trkpt>
      <trkpt lat="45.7375" lon="4.82409">
        <ele>166</ele>
        <time>2016-09-11T05:55:23Z</time>
      </trkpt>
      <trkpt lat="45.7376" lon="4.82421">
        <ele>167</ele>
        <time>2016-09-11T05:55:29Z</time>
      </trkpt>
      <trkpt lat="45.73772" lon="4.82428">
        <ele>165</ele>
        <time>2016-09-11T05:55:35Z</time>
      </trkpt>
      <trkpt lat="45.738" lon="4.82444">
        <ele>167</ele>
        <time>2016-09-11T05:55:45Z</time>
      </trkpt>
      <trkpt lat="45.73812" lon="4.82455">
        <ele>165</ele>
        <time>2016-09-11T05:55:50Z</time>
      </trkpt>
      <trkpt lat="45.73823" lon="4.82463">
        <ele>165</ele>
        <time>2016-09-11T05:55:55Z</time>
      </trkpt>
      <trkpt lat="45.73837" lon="4.82473">
        <ele>165</ele>
        <time>2016-09-11T05:56:02Z</time>
      </trkpt>
      <trkpt lat="45.73852" lon="4.82496">
        <ele>166</ele>
        <time>2016-09-11T05:56:10Z</time>
      </trkpt>
      <trkpt lat="45.73854" lon="4.82498">
        <ele>163</ele>
        <time>2016-09-11T05:56:11Z</time>
      </trkpt>
      <trkpt lat="45.73867" lon="4.8251">
        <ele>161</ele>
        <time>2016-09-11T05:56:18Z</time>
      </trkpt>
      <trkpt lat="45.73876" lon="4.82517">
        <ele>161</ele>
        <time>2016-09-11T05:56:23Z</time>
      </trkpt>
      <trkpt lat="45.73885" lon="4.82529">
        <ele>158</ele>
        <time>2016-09-11T05:56:29Z</time>
      </trkpt>
      <trkpt lat="45.73903" lon="4.82538">
        <ele>162</ele>
        <time>2016-09-11T05:56:37Z</time>
      </trkpt>
      <trkpt lat="45.7391" lon="4.82543">
        <ele>162</ele>
        <time>2016-09-11T05:56:41Z</time>
      </trkpt>
      <trkpt lat="45.7392" lon="4.82549">
        <ele>160</ele>
        <time>2016-09-11T05:56:47Z</time>
      </trkpt>
      <trkpt lat="45.73945" lon="4.82562">
        <ele>162</ele>
        <time>2016-09-11T05:56:58Z</time>
      </trkpt>
      <trkpt lat="45.73958" lon="4.82573">
        <ele>165</ele>
        <time>2016-09-11T05:57:04Z</time>
      </trkpt>
      <trkpt lat="45.73961" lon="4.82574">
        <ele>162</ele>
        <time>2016-09-11T05:57:05Z</time>
      </trkpt>
      <trkpt lat="45.73984" lon="4.82596">
        <ele>164</ele>
        <time>2016-09-11T05:57:16Z</time>
      </trkpt>
      <trkpt lat="45.73988" lon="4.82599">
        <ele>167</ele>
        <time>2016-09-11T05:57:18Z</time>
      </trkpt>
      <trkpt lat="45.73996" lon="4.82613">
        <ele>168</ele>
        <time>2016-09-11T05:57:23Z</time>
      </trkpt>
      <trkpt lat="45.74008" lon="4.82624">
        <ele>168</ele>
        <time>2016-09-11T05:57:29Z</time>
      </trkpt>
      <trkpt lat="45.74021" lon="4.82627">
        <ele>171</ele>
        <time>2016-09-11T05:57:35Z</time>
      </trkpt>
      <trkpt lat="45.74043" lon="4.82649">
        <ele>163</ele>
        <time>2016-09-11T05:57:45Z</time>
      </trkpt>
      <trkpt lat="45.74048" lon="4.82653">
        <ele>160</ele>
        <time>2016-09-11T05:57:48Z</time>
      </trkpt>
      <trkpt lat="45.74055" lon="4.82661">
        <ele>159</ele>
        <time>2016-09-11T05:57:53Z</time>
      </trkpt>
      <trkpt lat="45.7408" lon="4.8268">
        <ele>163</ele>
        <time>2016-09-11T05:58:04Z</time>
      </trkpt>
      <trkpt lat="45.74082" lon="4.82683">
        <ele>162</ele>
        <time>2016-09-11T05:58:05Z</time>
      </trkpt>
      <trkpt lat="45.74094" lon="4.82694">
        <ele>161</ele>
        <time>2016-09-11T05:58:11Z</time>
      </trkpt>
      <trkpt lat="45.74107" lon="4.82701">
        <ele>160</ele>
        <time>2016-09-11T05:58:17Z</time>
      </trkpt>
      <trkpt lat="45.74118" lon="4.82711">
        <ele>158</ele>
        <time>2016-09-11T05:58:23Z</time>
      </trkpt>
      <trkpt lat="45.7413" lon="4.82721">
        <ele>158</ele>
        <time>2016-09-11T05:58:29Z</time>
      </trkpt>
      <trkpt lat="45.74138" lon="4.82735">
        <ele>157</ele>
        <time>2016-09-11T05:58:36Z</time>
      </trkpt>
      <trkpt lat="45.74147" lon="4.82747">
        <ele>162</ele>
        <time>2016-09-11T05:58:41Z</time>
      </trkpt>
      <trkpt lat="45.74171" lon="4.82763">
        <ele>164</ele>
        <time>2016-09-11T05:58:52Z</time>
      </trkpt>
      <trkpt lat="45.7418" lon="4.82771">
        <ele>164</ele>
        <time>2016-09-11T05:58:56Z</time>
      </trkpt>
      <trkpt lat="45.74191" lon="4.82776">
        <ele>162</ele>
        <time>2016-09-11T05:58:59Z</time>
      </trkpt>
      <trkpt lat="45.74206" lon="4.82786">
        <ele>160</ele>
        <time>2016-09-11T05:59:05Z</time>
      </trkpt>
      <trkpt lat="45.7421" lon="4.82798">
        <ele>160</ele>
        <time>2016-09-11T05:59:12Z</time>
      </trkpt>
      <trkpt lat="45.74231" lon="4.82811">
        <ele>160</ele>
        <time>2016-09-11T05:59:20Z</time>
      </trkpt>
      <trkpt lat="45.74246" lon="4.82822">
        <ele>166</ele>
        <time>2016-09-11T05:59:26Z</time>
      </trkpt>
      <trkpt lat="45.7426" lon="4.82831">
        <ele>166</ele>
        <time>2016-09-11T05:59:33Z</time>
      </trkpt>
      <trkpt lat="45.74263" lon="4.82834">
        <ele>166</ele>
        <time>2016-09-11T05:59:35Z</time>
      </trkpt>
      <trkpt lat="45.74271" lon="4.82847">
        <ele>165</ele>
        <time>2016-09-11T05:59:42Z</time>
      </trkpt>
      <trkpt lat="45.74281" lon="4.82856">
        <ele>164</ele>
        <time>2016-09-11T05:59:47Z</time>
      </trkpt>
      <trkpt lat="45.743" lon="4.82869">
        <ele>160</ele>
        <time>2016-09-11T05:59:56Z</time>
      </trkpt>
      <trkpt lat="45.74314" lon="4.82878">
        <ele>157</ele>
        <time>2016-09-11T06:00:02Z</time>
      </trkpt>
      <trkpt lat="45.74321" lon="4.82884">
        <ele>157</ele>
        <time>2016-09-11T06:00:06Z</time>
      </trkpt>
      <trkpt lat="45.74331" lon="4.82899">
        <ele>163</ele>
        <time>2016-09-11T06:00:12Z</time>
      </trkpt>
      <trkpt lat="45.74355" lon="4.82924">
        <ele>162</ele>
        <time>2016-09-11T06:00:21Z</time>
      </trkpt>
      <trkpt lat="45.74366" lon="4.82925">
        <ele>164</ele>
        <time>2016-09-11T06:00:27Z</time>
      </trkpt>
      <trkpt lat="45.74378" lon="4.82934">
        <ele>162</ele>
        <time>2016-09-11T06:00:34Z</time>
      </trkpt>
      <trkpt lat="45.74387" lon="4.82942">
        <ele>160</ele>
        <time>2016-09-11T06:00:39Z</time>
      </trkpt>
      <trkpt lat="45.74399" lon="4.82952">
        <ele>159</ele>
        <time>2016-09-11T06:00:45Z</time>
      </trkpt>
      <trkpt lat="45.74406" lon="4.82959">
        <ele>155</ele>
        <time>2016-09-11T06:00:49Z</time>
      </trkpt>
      <trkpt lat="45.74416" lon="4.82967">
        <ele>156</ele>
        <time>2016-09-11T06:00:54Z</time>
      </trkpt>
      <trkpt lat="45.74435" lon="4.82985">
        <ele>154</ele>
        <time>2016-09-11T06:01:02Z</time>
      </trkpt>
      <trkpt lat="45.74441" lon="4.82993">
        <ele>155</ele>
        <time>2016-09-11T06:01:06Z</time>
      </trkpt>
      <trkpt lat="45.74455" lon="4.83006">
        <ele>159</ele>
        <time>2016-09-11T06:01:13Z</time>
      </trkpt>
      <trkpt lat="45.74467" lon="4.83021">
        <ele>157</ele>
        <time>2016-09-11T06:01:20Z</time>
      </trkpt>
      <trkpt lat="45.74472" lon="4.8303">
        <ele>158</ele>
        <time>2016-09-11T06:01:24Z</time>
      </trkpt>
      <trkpt lat="45.74481" lon="4.83042">
        <ele>156</ele>
        <time>2016-09-11T06:01:30Z</time>
      </trkpt>
      <trkpt lat="45.74498" lon="4.83059">
        <ele>163</ele>
        <time>2016-09-11T06:01:36Z</time>
      </trkpt>
      <trkpt lat="45.74526" lon="4.83082">
        <ele>171</ele>
        <time>2016-09-11T06:01:47Z</time>
      </trkpt>
      <trkpt lat="45.74527" lon="4.83084">
        <ele>169</ele>
        <time>2016-09-11T06:01:48Z</time>
      </trkpt>
      <trkpt lat="45.74536" lon="4.83095">
        <ele>167</ele>
        <time>2016-09-11T06:01:54Z</time>
      </trkpt>
      <trkpt lat="45.7455" lon="4.83108">
        <ele>169</ele>
        <time>2016-09-11T06:02:01Z</time>
      </trkpt>
      <trkpt lat="45.74563" lon="4.83118">
        <ele>174</ele>
        <time>2016-09-11T06:02:06Z</time>
      </trkpt>
      <trkpt lat="45.74572" lon="4.83131">
        <ele>172</ele>
        <time>2016-09-11T06:02:12Z</time>
      </trkpt>
      <trkpt lat="45.74581" lon="4.8314">
        <ele>170</ele>
        <time>2016-09-11T06:02:18Z</time>
      </trkpt>
      <trkpt lat="45.74591" lon="4.83147">
        <ele>170</ele>
        <time>2016-09-11T06:02:24Z</time>
      </trkpt>
      <trkpt lat="45.7461" lon="4.83159">
        <ele>166</ele>
        <time>2016-09-11T06:02:35Z</time>
      </trkpt>
      <trkpt lat="45.74611" lon="4.8316">
        <ele>164</ele>
        <time>2016-09-11T06:02:36Z</time>
      </trkpt>
      <trkpt lat="45.74631" lon="4.83186">
        <ele>164</ele>
        <time>2016-09-11T06:02:46Z</time>
      </trkpt>
      <trkpt lat="45.74642" lon="4.83193">
        <ele>165</ele>
        <time>2016-09-11T06:02:51Z</time>
      </trkpt>
      <trkpt lat="45.74648" lon="4.83199">
        <ele>166</ele>
        <time>2016-09-11T06:02:54Z</time>
      </trkpt>
      <trkpt lat="45.74675" lon="4.83212">
        <ele>167</ele>
        <time>2016-09-11T06:03:05Z</time>
      </trkpt>
      <trkpt lat="45.74677" lon="4.83213">
        <ele>166</ele>
        <time>2016-09-11T06:03:06Z</time>
      </trkpt>
      <trkpt lat="45.74688" lon="4.8322">
        <ele>168</ele>
        <time>2016-09-11T06:03:12Z</time>
      </trkpt>
      <trkpt lat="45.74711" lon="4.83248">
        <ele>168</ele>
        <time>2016-09-11T06:03:22Z</time>
      </trkpt>
      <trkpt lat="45.74716" lon="4.8325">
        <ele>167</ele>
        <time>2016-09-11T06:03:24Z</time>
      </trkpt>
      <trkpt lat="45.74736" lon="4.83264">
        <ele>167</ele>
        <time>2016-09-11T06:03:35Z</time>
      </trkpt>
      <trkpt lat="45.74737" lon="4.83266">
        <ele>165</ele>
        <time>2016-09-11T06:03:36Z</time>
      </trkpt>
      <trkpt lat="45.74761" lon="4.83278">
        <ele>167</ele>
        <time>2016-09-11T06:03:47Z</time>
      </trkpt>
      <trkpt lat="45.74763" lon="4.8328">
        <ele>166</ele>
        <time>2016-09-11T06:03:48Z</time>
      </trkpt>
      <trkpt lat="45.7478" lon="4.83296">
        <ele>167</ele>
        <time>2016-09-11T06:03:56Z</time>
      </trkpt>
      <trkpt lat="45.74787" lon="4.83305">
        <ele>167</ele>
        <time>2016-09-11T06:04:00Z</time>
      </trkpt>
      <trkpt lat="45.74793" lon="4.83304">
        <ele>167</ele>
        <time>2016-09-11T06:04:06Z</time>
      </trkpt>
      <trkpt lat="45.74809" lon="4.83324">
        <ele>167</ele>
        <time>2016-09-11T06:04:17Z</time>
      </trkpt>
      <trkpt lat="45.74819" lon="4.83325">
        <ele>165</ele>
        <time>2016-09-11T06:04:21Z</time>
      </trkpt>
      <trkpt lat="45.7482" lon="4.83329">
        <ele>168</ele>
        <time>2016-09-11T06:04:25Z</time>
      </trkpt>
      <trkpt lat="45.74825" lon="4.83331">
        <ele>168</ele>
        <time>2016-09-11T06:04:33Z</time>
      </trkpt>
      <trkpt lat="45.74827" lon="4.83332">
        <ele>172</ele>
        <time>2016-09-11T06:04:36Z</time>
      </trkpt>
      <trkpt lat="45.74828" lon="4.83331">
        <ele>176</ele>
        <time>2016-09-11T06:04:42Z</time>
      </trkpt>
      <trkpt lat="45.74829" lon="4.83331">
        <ele>178</ele>
        <time>2016-09-11T06:04:48Z</time>
      </trkpt>
      <trkpt lat="45.74838" lon="4.83351">
        <ele>172</ele>
        <time>2016-09-11T06:04:58Z</time>
      </trkpt>
      <trkpt lat="45.74847" lon="4.83354">
        <ele>172</ele>
        <time>2016-09-11T06:05:01Z</time>
      </trkpt>
      <trkpt lat="45.74858" lon="4.83363">
        <ele>167</ele>
        <time>2016-09-11T06:05:06Z</time>
      </trkpt>
      <trkpt lat="45.74879" lon="4.83385">
        <ele>162</ele>
        <time>2016-09-11T06:05:17Z</time>
      </trkpt>
      <trkpt lat="45.74881" lon="4.83386">
        <ele>162</ele>
        <time>2016-09-11T06:05:18Z</time>
      </trkpt>
      <trkpt lat="45.74903" lon="4.83398">
        <ele>168</ele>
        <time>2016-09-11T06:05:26Z</time>
      </trkpt>
      <trkpt lat="45.74915" lon="4.83408">
        <ele>163</ele>
        <time>2016-09-11T06:05:33Z</time>
      </trkpt>
      <trkpt lat="45.74924" lon="4.83412">
        <ele>166</ele>
        <time>2016-09-11T06:05:37Z</time>
      </trkpt>
      <trkpt lat="45.74949" lon="4.83426">
        <ele>164</ele>
        <time>2016-09-11T06:05:47Z</time>
      </trkpt>
      <trkpt lat="45.74951" lon="4.83427">
        <ele>166</ele>
        <time>2016-09-11T06:05:48Z</time>
      </trkpt>
      <trkpt lat="45.74971" lon="4.83446">
        <ele>167</ele>
        <time>2016-09-11T06:05:58Z</time>
      </trkpt>
      <trkpt lat="45.74978" lon="4.83452">
        <ele>164</ele>
        <time>2016-09-11T06:06:02Z</time>
      </trkpt>
      <trkpt lat="45.74985" lon="4.83459">
        <ele>163</ele>
        <time>2016-09-11T06:06:06Z</time>
      </trkpt>
      <trkpt lat="45.75001" lon="4.83476">
        <ele>168</ele>
        <time>2016-09-11T06:06:16Z</time>
      </trkpt>
      <trkpt lat="45.75008" lon="4.8348">
        <ele>166</ele>
        <time>2016-09-11T06:06:19Z</time>
      </trkpt>
      <trkpt lat="45.7502" lon="4.83488">
        <ele>165</ele>
        <time>2016-09-11T06:06:24Z</time>
      </trkpt>
      <trkpt lat="45.75033" lon="4.83499">
        <ele>164</ele>
        <time>2016-09-11T06:06:30Z</time>
      </trkpt>
      <trkpt lat="45.75052" lon="4.83512">
        <ele>172</ele>
        <time>2016-09-11T06:06:38Z</time>
      </trkpt>
      <trkpt lat="45.75066" lon="4.83521">
        <ele>170</ele>
        <time>2016-09-11T06:06:45Z</time>
      </trkpt>
      <trkpt lat="45.75075" lon="4.83526">
        <ele>170</ele>
        <time>2016-09-11T06:06:49Z</time>
      </trkpt>
      <trkpt lat="45.75091" lon="4.83543">
        <ele>169</ele>
        <time>2016-09-11T06:06:58Z</time>
      </trkpt>
      <trkpt lat="45.75102" lon="4.83553">
        <ele>167</ele>
        <time>2016-09-11T06:07:04Z</time>
      </trkpt>
      <trkpt lat="45.75112" lon="4.83562">
        <ele>164</ele>
        <time>2016-09-11T06:07:09Z</time>
      </trkpt>
      <trkpt lat="45.75121" lon="4.83567">
        <ele>164</ele>
        <time>2016-09-11T06:07:13Z</time>
      </trkpt>
      <trkpt lat="45.75134" lon="4.83574">
        <ele>165</ele>
        <time>2016-09-11T06:07:19Z</time>
      </trkpt>
      <trkpt lat="45.75149" lon="4.83586">
        <ele>168</ele>
        <time>2016-09-11T06:07:26Z</time>
      </trkpt>
      <trkpt lat="45.75158" lon="4.83594">
        <ele>168</ele>
        <time>2016-09-11T06:07:31Z</time>
      </trkpt>
      <trkpt lat="45.75184" lon="4.83613">
        <ele>165</ele>
        <time>2016-09-11T06:07:40Z</time>
      </trkpt>
      <trkpt lat="45.75193" lon="4.83621">
        <ele>170</ele>
        <time>2016-09-11T06:07:43Z</time>
      </trkpt>
      <trkpt lat="45.75208" lon="4.83631">
        <ele>175</ele>
        <time>2016-09-11T06:07:49Z</time>
      </trkpt>
      <trkpt lat="45.75209" lon="4.83638">
        <ele>173</ele>
        <time>2016-09-11T06:07:55Z</time>
      </trkpt>
      <trkpt lat="45.75222" lon="4.83644">
        <ele>171</ele>
        <time>2016-09-11T06:08:04Z</time>
      </trkpt>
      <trkpt lat="45.75228" lon="4.83649">
        <ele>168</ele>
        <time>2016-09-11T06:08:07Z</time>
      </trkpt>
      <trkpt lat="45.75243" lon="4.83661">
        <ele>168</ele>
        <time>2016-09-11T06:08:13Z</time>
      </trkpt>
      <trkpt lat="45.75264" lon="4.83675">
        <ele>162</ele>
        <time>2016-09-11T06:08:21Z</time>
      </trkpt>
      <trkpt lat="45.75269" lon="4.83677">
        <ele>164</ele>
        <time>2016-09-11T06:08:25Z</time>
      </trkpt>
      <trkpt lat="45.75288" lon="4.83693">
        <ele>159</ele>
        <time>2016-09-11T06:08:36Z</time>
      </trkpt>
      <trkpt lat="45.7529" lon="4.83695">
        <ele>158</ele>
        <time>2016-09-11T06:08:37Z</time>
      </trkpt>
      <trkpt lat="45.75306" lon="4.83709">
        <ele>156</ele>
        <time>2016-09-11T06:08:45Z</time>
      </trkpt>
      <trkpt lat="45.75314" lon="4.83714">
        <ele>158</ele>
        <time>2016-09-11T06:08:49Z</time>
      </trkpt>
      <trkpt lat="45.75328" lon="4.83722">
        <ele>163</ele>
        <time>2016-09-11T06:08:56Z</time>
      </trkpt>
      <trkpt lat="45.75348" lon="4.83737">
        <ele>160</ele>
        <time>2016-09-11T06:09:06Z</time>
      </trkpt>
      <trkpt lat="45.7535" lon="4.83738">
        <ele>160</ele>
        <time>2016-09-11T06:09:07Z</time>
      </trkpt>
      <trkpt lat="45.75365" lon="4.83746">
        <ele>158</ele>
        <time>2016-09-11T06:09:13Z</time>
      </trkpt>
      <trkpt lat="45.75391" lon="4.83762">
        <ele>164</ele>
        <time>2016-09-11T06:09:23Z</time>
      </trkpt>
      <trkpt lat="45.75395" lon="4.83767">
        <ele>166</ele>
        <time>2016-09-11T06:09:26Z</time>
      </trkpt>
      <trkpt lat="45.75413" lon="4.83788">
        <ele>169</ele>
        <time>2016-09-11T06:09:36Z</time>
      </trkpt>
      <trkpt lat="45.75415" lon="4.83789">
        <ele>170</ele>
        <time>2016-09-11T06:09:37Z</time>
      </trkpt>
      <trkpt lat="45.75427" lon="4.83794">
        <ele>172</ele>
        <time>2016-09-11T06:09:43Z</time>
      </trkpt>
      <trkpt lat="45.75445" lon="4.83802">
        <ele>169</ele>
        <time>2016-09-11T06:09:50Z</time>
      </trkpt>
      <trkpt lat="45.75454" lon="4.8381">
        <ele>167</ele>
        <time>2016-09-11T06:09:55Z</time>
      </trkpt>
      <trkpt lat="45.75474" lon="4.8382">
        <ele>163</ele>
        <time>2016-09-11T06:10:04Z</time>
      </trkpt>
      <trkpt lat="45.7548" lon="4.83826">
        <ele>163</ele>
        <time>2016-09-11T06:10:07Z</time>
      </trkpt>
      <trkpt lat="45.75489" lon="4.83836">
        <ele>161</ele>
        <time>2016-09-11T06:10:13Z</time>
      </trkpt>
      <trkpt lat="45.75497" lon="4.83841">
        <ele>165</ele>
        <time>2016-09-11T06:10:20Z</time>
      </trkpt>
      <trkpt lat="45.75522" lon="4.8386">
        <ele>163</ele>
        <time>2016-09-11T06:10:29Z</time>
      </trkpt>
      <trkpt lat="45.75526" lon="4.83863">
        <ele>163</ele>
        <time>2016-09-11T06:10:31Z</time>
      </trkpt>
      <trkpt lat="45.7554" lon="4.83871">
        <ele>160</ele>
        <time>2016-09-11T06:10:37Z</time>
      </trkpt>
      <trkpt lat="45.75553" lon="4.83884">
        <ele>162</ele>
        <time>2016-09-11T06:10:43Z</time>
      </trkpt>
      <trkpt lat="45.75569" lon="4.83896">
        <ele>161</ele>
        <time>2016-09-11T06:10:50Z</time>
      </trkpt>
      <trkpt lat="45.75582" lon="4.83904">
        <ele>165</ele>
        <time>2016-09-11T06:11:00Z</time>
      </trkpt>
      <trkpt lat="45.75588" lon="4.83907">
        <ele>164</ele>
        <time>2016-09-11T06:11:03Z</time>
      </trkpt>
      <trkpt lat="45.75596" lon="4.83912">
        <ele>164</ele>
        <time>2016-09-11T06:11:07Z</time>
      </trkpt>
      <trkpt lat="45.75617" lon="4.8393">
        <ele>163</ele>
        <time>2016-09-11T06:11:17Z</time>
      </trkpt>
      <trkpt lat="45.75624" lon="4.83941">
        <ele>160</ele>
        <time>2016-09-11T06:11:22Z</time>
      </trkpt>
      <trkpt lat="45.75622" lon="4.83948">
        <ele>160</ele>
        <time>2016-09-11T06:11:25Z</time>
      </trkpt>
      <trkpt lat="45.75617" lon="4.83957">
        <ele>161</ele>
        <time>2016-09-11T06:11:31Z</time>
      </trkpt>
      <trkpt lat="45.75619" lon="4.83965">
        <ele>160</ele>
        <time>2016-09-11T06:11:37Z</time>
      </trkpt>
      <trkpt lat="45.75617" lon="4.83974">
        <ele>161</ele>
        <time>2016-09-11T06:11:44Z</time>
      </trkpt>
      <trkpt lat="45.75595" lon="4.83993">
        <ele>167</ele>
        <time>2016-09-11T06:11:53Z</time>
      </trkpt>
      <trkpt lat="45.75583" lon="4.83986">
        <ele>170</ele>
        <time>2016-09-11T06:12:00Z</time>
      </trkpt>
      <trkpt lat="45.75578" lon="4.83982">
        <ele>171</ele>
        <time>2016-09-11T06:12:03Z</time>
      </trkpt>
      <trkpt lat="45.75569" lon="4.83978">
        <ele>171</ele>
        <time>2016-09-11T06:12:07Z</time>
      </trkpt>
      <trkpt lat="45.75545" lon="4.83968">
        <ele>166</ele>
        <time>2016-09-11T06:12:17Z</time>
      </trkpt>
      <trkpt lat="45.75542" lon="4.83963">
        <ele>167</ele>
        <time>2016-09-11T06:12:19Z</time>
      </trkpt>
      <trkpt lat="45.75524" lon="4.83949">
        <ele>163</ele>
        <time>2016-09-11T06:12:29Z</time>
      </trkpt>
      <trkpt lat="45.7552" lon="4.83946">
        <ele>164</ele>
        <time>2016-09-11T06:12:31Z</time>
      </trkpt>
      <trkpt lat="45.75505" lon="4.83942">
        <ele>168</ele>
        <time>2016-09-11T06:12:37Z</time>
      </trkpt>
      <trkpt lat="45.75491" lon="4.83939">
        <ele>171</ele>
        <time>2016-09-11T06:12:43Z</time>
      </trkpt>
      <trkpt lat="45.75464" lon="4.83922">
        <ele>165</ele>
        <time>2016-09-11T06:12:53Z</time>
      </trkpt>
      <trkpt lat="45.75451" lon="4.83913">
        <ele>165</ele>
        <time>2016-09-11T06:13:00Z</time>
      </trkpt>
      <trkpt lat="45.75449" lon="4.83912">
        <ele>165</ele>
        <time>2016-09-11T06:13:01Z</time>
      </trkpt>
      <trkpt lat="45.75436" lon="4.83902">
        <ele>162</ele>
        <time>2016-09-11T06:13:07Z</time>
      </trkpt>
      <trkpt lat="45.75425" lon="4.8389">
        <ele>164</ele>
        <time>2016-09-11T06:13:13Z</time>
      </trkpt>
      <trkpt lat="45.75402" lon="4.83874">
        <ele>169</ele>
        <time>2016-09-11T06:13:24Z</time>
      </trkpt>
      <trkpt lat="45.754" lon="4.83874">
        <ele>167</ele>
        <time>2016-09-11T06:13:25Z</time>
      </trkpt>
      <trkpt lat="45.75389" lon="4.83862">
        <ele>164</ele>
        <time>2016-09-11T06:13:32Z</time>
      </trkpt>
      <trkpt lat="45.75378" lon="4.83854">
        <ele>167</ele>
        <time>2016-09-11T06:13:38Z</time>
      </trkpt>
      <trkpt lat="45.7537" lon="4.83846">
        <ele>168</ele>
        <time>2016-09-11T06:13:43Z</time>
      </trkpt>
      <trkpt lat="45.75355" lon="4.83836">
        <ele>168</ele>
        <time>2016-09-11T06:13:50Z</time>
      </trkpt>
      <trkpt lat="45.75342" lon="4.83831">
        <ele>166</ele>
        <time>2016-09-11T06:13:55Z</time>
      </trkpt>
      <trkpt lat="45.75325" lon="4.83817">
        <ele>171</ele>
        <time>2016-09-11T06:14:03Z</time>
      </trkpt>
      <trkpt lat="45.75308" lon="4.83797">
        <ele>171</ele>
        <time>2016-09-11T06:14:12Z</time>
      </trkpt>
      <trkpt lat="45.75307" lon="4.83796">
        <ele>170</ele>
        <time>2016-09-11T06:14:13Z</time>
      </trkpt>
      <trkpt lat="45.75295" lon="4.83789">
        <ele>170</ele>
        <time>2016-09-11T06:14:19Z</time>
      </trkpt>
      <trkpt lat="45.75287" lon="4.83765">
        <ele>173</ele>
        <time>2016-09-11T06:14:29Z</time>
      </trkpt>
      <trkpt lat="45.75289" lon="4.83765">
        <ele>172</ele>
        <time>2016-09-11T06:14:31Z</time>
      </trkpt>
      <trkpt lat="45.75295" lon="4.83767">
        <ele>173</ele>
        <time>2016-09-11T06:14:37Z</time>
      </trkpt>
      <trkpt lat="45.75301" lon="4.8377">
        <ele>171</ele>
        <time>2016-09-11T06:14:46Z</time>
      </trkpt>
      <trkpt lat="45.75301" lon="4.8377">
        <ele>171</ele>
        <time>2016-09-11T06:14:49Z</time>
      </trkpt>
      <trkpt lat="45.75293" lon="4.83768">
        <ele>173</ele>
        <time>2016-09-11T06:14:55Z</time>
      </trkpt>
      <trkpt lat="45.75283" lon="4.83762">
        <ele>166</ele>
        <time>2016-09-11T06:15:01Z</time>
      </trkpt>
      <trkpt lat="45.75257" lon="4.83748">
        <ele>163</ele>
        <time>2016-09-11T06:15:11Z</time>
      </trkpt>
      <trkpt lat="45.75251" lon="4.83743">
        <ele>165</ele>
        <time>2016-09-11T06:15:14Z</time>
      </trkpt>
      <trkpt lat="45.75243" lon="4.83737">
        <ele>165</ele>
        <time>2016-09-11T06:15:19Z</time>
      </trkpt>
      <trkpt lat="45.75233" lon="4.83728">
        <ele>165</ele>
        <time>2016-09-11T06:15:25Z</time>
      </trkpt>
      <trkpt lat="45.75221" lon="4.83721">
        <ele>170</ele>
        <time>2016-09-11T06:15:31Z</time>
      </trkpt>
      <trkpt lat="45.75212" lon="4.83712">
        <ele>167</ele>
        <time>2016-09-11T06:15:37Z</time>
      </trkpt>
      <trkpt lat="45.75199" lon="4.83695">
        <ele>175</ele>
        <time>2016-09-11T06:15:46Z</time>
      </trkpt>
      <trkpt lat="45.75201" lon="4.83689">
        <ele>173</ele>
        <time>2016-09-11T06:15:52Z</time>
      </trkpt>
      <trkpt lat="45.75201" lon="4.83687">
        <ele>173</ele>
        <time>2016-09-11T06:15:55Z</time>
      </trkpt>
      <trkpt lat="45.75203" lon="4.83675">
        <ele>171</ele>
        <time>2016-09-11T06:16:01Z</time>
      </trkpt>
      <trkpt lat="45.75215" lon="4.83645">
        <ele>170</ele>
        <time>2016-09-11T06:16:10Z</time>
      </trkpt>
      <trkpt lat="45.75226" lon="4.83622">
        <ele>169</ele>
        <time>2016-09-11T06:16:16Z</time>
      </trkpt>
      <trkpt lat="45.75233" lon="4.83601">
        <ele>173</ele>
        <time>2016-09-11T06:16:22Z</time>
      </trkpt>
      <trkpt lat="45.75242" lon="4.83578">
        <ele>176</ele>
        <time>2016-09-11T06:16:29Z</time>
      </trkpt>
      <trkpt lat="45.75251" lon="4.83557">
        <ele>173</ele>
        <time>2016-09-11T06:16:36Z</time>
      </trkpt>
      <trkpt lat="45.75252" lon="4.83554">
        <ele>174</ele>
        <time>2016-09-11T06:16:37Z</time>
      </trkpt>
      <trkpt lat="45.75263" lon="4.83525">
        <ele>172</ele>
        <time>2016-09-11T06:16:47Z</time>
      </trkpt>
      <trkpt lat="45.75265" lon="4.83524">
        <ele>174</ele>
        <time>2016-09-11T06:16:49Z</time>
      </trkpt>
      <trkpt lat="45.75273" lon="4.83507">
        <ele>176</ele>
        <time>2016-09-11T06:16:55Z</time>
      </trkpt>
      <trkpt lat="45.7528" lon="4.83485">
        <ele>174</ele>
        <time>2016-09-11T06:17:01Z</time>
      </trkpt>
      <trkpt lat="45.75289" lon="4.83468">
        <ele>171</ele>
        <time>2016-09-11T06:17:07Z</time>
      </trkpt>
      <trkpt lat="45.75302" lon="4.83439">
        <ele>173</ele>
        <time>2016-09-11T06:17:17Z</time>
      </trkpt>
      <trkpt lat="45.75307" lon="4.83415">
        <ele>174</ele>
        <time>2016-09-11T06:17:23Z</time>
      </trkpt>
      <trkpt lat="45.75309" lon="4.83407">
        <ele>172</ele>
        <time>2016-09-11T06:17:25Z</time>
      </trkpt>
      <trkpt lat="45.75313" lon="4.83388">
        <ele>172</ele>
        <time>2016-09-11T06:17:31Z</time>
      </trkpt>
      <trkpt lat="45.75317" lon="4.83373">
        <ele>171</ele>
        <time>2016-09-11T06:17:37Z</time>
      </trkpt>
      <trkpt lat="45.75339" lon="4.8334">
        <ele>171</ele>
        <time>2016-09-11T06:17:48Z</time>
      </trkpt>
      <trkpt lat="45.7534" lon="4.83336">
        <ele>169</ele>
        <time>2016-09-11T06:17:49Z</time>
      </trkpt>
      <trkpt lat="45.75345" lon="4.83316">
        <ele>169</ele>
        <time>2016-09-11T06:17:55Z</time>
      </trkpt>
      <trkpt lat="45.75349" lon="4.83285">
        <ele>171</ele>
        <time>2016-09-11T06:18:02Z</time>
      </trkpt>
      <trkpt lat="45.75401" lon="4.83214">
        <ele>164</ele>
        <time>2016-09-11T06:18:31Z</time>
      </trkpt>
      <trkpt lat="45.75402" lon="4.8321">
        <ele>163</ele>
        <time>2016-09-11T06:18:33Z</time>
      </trkpt>
      <trkpt lat="45.75412" lon="4.83195">
        <ele>164</ele>
        <time>2016-09-11T06:18:38Z</time>
      </trkpt>
      <trkpt lat="45.75367" lon="4.82964">
        <ele>185</ele>
        <time>2016-09-11T06:20:12Z</time>
      </trkpt>
      <trkpt lat="45.75368" lon="4.82946">
        <ele>185</ele>
        <time>2016-09-11T06:20:18Z</time>
      </trkpt>
      <trkpt lat="45.75371" lon="4.82941">
        <ele>187</ele>
        <time>2016-09-11T06:20:19Z</time>
      </trkpt>
      <trkpt lat="45.75399" lon="4.82907">
        <ele>190</ele>
        <time>2016-09-11T06:20:29Z</time>
      </trkpt>
      <trkpt lat="45.754" lon="4.82901">
        <ele>190</ele>
        <time>2016-09-11T06:20:31Z</time>
      </trkpt>
    </trkseg>
  </trk>
</gpx>